createdAt,value
2022-12-24T00:01:22.596Z,30.50
2022-12-24T00:03:50.469Z,47.97
2022-12-24T00:06:21.009Z,42.13
2022-12-24T00:08:48.863Z,34.93
2022-12-24T00:11:18.340Z,32.47
2022-12-24T00:13:46.015Z,29.90
2022-12-24T00:16:13.679Z,30.50
2022-12-24T00:18:45.977Z,30.83
2022-12-24T00:21:14.656Z,31.30
2022-12-24T00:23:42.868Z,32.13
2022-12-24T00:26:10.543Z,30.47
2022-12-24T00:28:39.612Z,30.20
2022-12-24T00:31:12.283Z,31.73
2022-12-24T00:33:40.135Z,30.27
2022-12-24T00:36:09.481Z,30.40
2022-12-24T00:38:37.284Z,30.03
2022-12-24T00:41:24.329Z,30.50
2022-12-24T00:43:55.770Z,29.53
2022-12-24T00:46:24.286Z,30.50
2022-12-24T00:48:52.011Z,30.00
2022-12-24T00:51:20.616Z,30.60
2022-12-24T00:53:48.369Z,31.73
2022-12-24T00:56:16.240Z,30.60
2022-12-24T00:58:43.795Z,30.40
2022-12-24T01:01:13.337Z,31.00
2022-12-24T01:03:41.306Z,30.57
2022-12-24T01:06:10.669Z,33.13
2022-12-24T01:08:38.477Z,30.90
2022-12-24T01:11:07.336Z,31.50
2022-12-24T01:13:35.261Z,31.30
2022-12-24T01:16:03.337Z,31.90
2022-12-24T01:18:32.272Z,32.00
2022-12-24T01:21:01.498Z,32.23
2022-12-24T01:23:29.951Z,31.87
2022-12-24T01:26:01.429Z,32.47
2022-12-24T01:28:29.460Z,32.73
2022-12-24T01:30:57.096Z,32.37
2022-12-24T01:33:24.769Z,32.33
2022-12-24T01:35:53.692Z,32.83
2022-12-24T01:38:21.239Z,34.60
2022-12-24T01:41:02.715Z,33.00
2022-12-24T01:43:32.738Z,33.70
2022-12-24T01:46:02.913Z,32.40
2022-12-24T01:48:36.805Z,31.93
2022-12-24T01:51:15.403Z,33.33
2022-12-24T01:53:46.187Z,33.20
2022-12-24T01:56:14.270Z,33.90
2022-12-24T01:58:47.172Z,33.60
2022-12-24T02:01:14.865Z,33.87
2022-12-24T02:03:42.640Z,33.60
2022-12-24T02:06:16.459Z,34.40
2022-12-24T02:08:44.235Z,35.07
2022-12-24T02:11:13.995Z,34.70
2022-12-24T02:13:43.318Z,34.03
2022-12-24T02:16:22.319Z,34.60
2022-12-24T02:18:58.183Z,35.50
2022-12-24T02:21:41.615Z,34.17
2022-12-24T02:24:49.120Z,34.10
2022-12-24T02:27:26.991Z,33.40
2022-12-24T02:30:09.503Z,33.50
2022-12-24T02:32:46.434Z,34.13
2022-12-24T02:35:20.183Z,34.17
2022-12-24T02:37:53.822Z,34.20
2022-12-24T02:40:26.335Z,35.90
2022-12-24T02:42:58.768Z,36.23
2022-12-24T02:45:31.839Z,34.80
2022-12-24T02:48:01.163Z,36.03
2022-12-24T02:50:29.516Z,36.97
2022-12-24T02:52:57.163Z,34.30
2022-12-24T02:55:32.848Z,34.20
2022-12-24T02:58:17.799Z,36.47
2022-12-24T03:00:56.445Z,37.50
2022-12-24T03:03:35.590Z,35.13
2022-12-24T03:06:14.981Z,35.43
2022-12-24T03:08:49.634Z,35.47
2022-12-24T03:11:19.660Z,34.90
2022-12-24T03:13:48.945Z,35.13
2022-12-24T03:16:22.725Z,34.60
2022-12-24T03:18:52.029Z,37.50
2022-12-24T03:21:25.081Z,34.97
2022-12-24T03:23:52.847Z,34.17
2022-12-24T03:26:21.388Z,36.10
2022-12-24T03:28:49.969Z,36.63
2022-12-24T03:31:19.841Z,37.00
2022-12-24T03:33:48.622Z,35.53
2022-12-24T03:36:16.623Z,37.70
2022-12-24T03:38:44.245Z,35.57
2022-12-24T03:41:11.828Z,35.50
2022-12-24T03:43:39.404Z,35.40
2022-12-24T03:46:08.727Z,37.33
2022-12-24T03:48:37.666Z,35.90
2022-12-24T03:51:06.023Z,37.23
2022-12-24T03:53:33.595Z,36.37
2022-12-24T03:56:01.181Z,36.87
2022-12-24T03:58:28.779Z,36.17
2022-12-24T04:00:56.407Z,37.43
2022-12-24T04:03:24.039Z,35.43
2022-12-24T04:06:02.950Z,35.80
2022-12-24T04:08:30.491Z,37.43
2022-12-24T04:10:58.101Z,35.87
2022-12-24T04:13:26.031Z,35.37
2022-12-24T04:15:59.147Z,36.40
2022-12-24T04:18:26.776Z,38.10
2022-12-24T04:20:54.688Z,36.43
2022-12-24T04:23:23.722Z,36.90
2022-12-24T04:25:51.796Z,35.57
2022-12-24T04:28:19.714Z,35.00
2022-12-24T04:30:47.311Z,35.40
2022-12-24T04:33:14.850Z,36.40
2022-12-24T04:35:42.957Z,34.57
2022-12-24T04:38:11.207Z,34.73
2022-12-24T04:40:40.099Z,36.13
2022-12-24T04:43:07.688Z,35.17
2022-12-24T04:45:35.338Z,37.10
2022-12-24T04:48:02.933Z,36.57
2022-12-24T04:50:30.491Z,37.07
2022-12-24T04:52:58.080Z,37.63
2022-12-24T04:55:25.667Z,35.90
2022-12-24T04:57:54.537Z,35.80
2022-12-24T05:00:22.377Z,36.53
2022-12-24T05:02:50.100Z,36.33
2022-12-24T05:05:17.988Z,35.90
2022-12-24T05:07:45.577Z,35.77
2022-12-24T05:10:13.184Z,36.80
2022-12-24T05:12:40.767Z,37.27
2022-12-24T05:15:10.352Z,35.97
2022-12-24T05:17:37.938Z,37.20
2022-12-24T05:20:06.477Z,37.10
2022-12-24T05:22:51.719Z,35.67
2022-12-24T05:25:37.059Z,36.97
2022-12-24T05:28:04.775Z,36.10
2022-12-24T05:30:33.990Z,36.83
2022-12-24T05:33:01.565Z,36.60
2022-12-24T05:35:29.212Z,36.87
2022-12-24T05:37:59.089Z,38.30
2022-12-24T05:40:26.816Z,37.13
2022-12-24T05:42:54.409Z,37.40
2022-12-24T05:45:21.940Z,39.40
2022-12-24T05:47:50.851Z,37.60
2022-12-24T05:50:18.561Z,35.43
2022-12-24T05:52:46.119Z,36.50
2022-12-24T05:55:13.687Z,36.77
2022-12-24T05:57:41.717Z,35.97
2022-12-24T06:00:10.673Z,35.03
2022-12-24T06:02:38.467Z,35.97
2022-12-24T06:05:07.836Z,35.80
2022-12-24T06:07:35.901Z,35.80
2022-12-24T06:10:03.662Z,34.73
2022-12-24T06:12:31.256Z,36.90
2022-12-24T06:14:58.792Z,35.50
2022-12-24T06:17:26.425Z,34.97
2022-12-24T06:19:54.011Z,36.87
2022-12-24T06:22:22.926Z,36.10
2022-12-24T06:24:50.539Z,36.40
2022-12-24T06:27:18.131Z,36.10
2022-12-24T06:29:46.256Z,34.93
2022-12-24T06:32:13.976Z,34.57
2022-12-24T06:34:41.540Z,34.90
2022-12-24T06:37:16.342Z,33.97
2022-12-24T06:39:45.931Z,34.57
2022-12-24T06:42:13.531Z,36.57
2022-12-24T06:44:41.214Z,34.30
2022-12-24T06:47:08.839Z,35.50
2022-12-24T06:49:36.447Z,35.10
2022-12-24T06:52:04.130Z,34.03
2022-12-24T06:54:31.762Z,34.47
2022-12-24T06:57:00.724Z,36.00
2022-12-24T06:59:28.295Z,36.70
2022-12-24T07:01:55.998Z,35.67
2022-12-24T07:04:23.743Z,35.67
2022-12-24T07:06:51.334Z,34.77
2022-12-24T07:09:19.240Z,34.73
2022-12-24T07:11:46.816Z,36.30
2022-12-24T07:14:15.731Z,34.73
2022-12-24T07:16:43.472Z,35.30
2022-12-24T07:19:11.266Z,34.67
2022-12-24T07:21:38.925Z,35.57
2022-12-24T07:24:07.058Z,35.60
2022-12-24T07:26:34.671Z,35.13
2022-12-24T07:29:02.446Z,34.40
2022-12-24T07:31:31.499Z,37.30
2022-12-24T07:33:59.179Z,35.80
2022-12-24T07:36:28.216Z,36.57
2022-12-24T07:38:56.745Z,35.53
2022-12-24T07:41:24.309Z,35.80
2022-12-24T07:43:51.906Z,37.27
2022-12-24T07:46:19.579Z,34.23
2022-12-24T07:48:48.604Z,34.00
2022-12-24T07:51:16.272Z,34.70
2022-12-24T07:53:47.677Z,34.30
2022-12-24T07:56:16.206Z,35.63
2022-12-24T07:58:44.107Z,35.50
2022-12-24T08:01:12.153Z,34.40
2022-12-24T08:03:40.053Z,35.10
2022-12-24T08:06:09.747Z,33.83
2022-12-24T08:08:37.691Z,34.73
2022-12-24T08:11:07.922Z,33.77
2022-12-24T08:13:35.793Z,34.03
2022-12-24T08:16:03.467Z,33.00
2022-12-24T08:18:31.205Z,33.30
2022-12-24T08:20:58.887Z,33.43
2022-12-24T08:23:27.857Z,33.40
2022-12-24T08:25:55.521Z,33.63
2022-12-24T08:28:23.157Z,34.13
2022-12-24T08:30:51.959Z,33.50
2022-12-24T08:33:20.327Z,33.40
2022-12-24T08:35:49.929Z,33.23
2022-12-24T08:38:18.275Z,33.70
2022-12-24T08:40:49.892Z,33.30
2022-12-24T08:43:18.434Z,34.80
2022-12-24T08:45:46.528Z,33.20
2022-12-24T08:48:14.230Z,31.80
2022-12-24T08:50:42.852Z,34.37
2022-12-24T08:53:11.249Z,34.33
2022-12-24T08:55:39.552Z,33.07
2022-12-24T08:58:08.579Z,34.13
2022-12-24T09:00:36.275Z,33.10
2022-12-24T09:03:04.056Z,35.00
2022-12-24T09:05:31.740Z,34.00
2022-12-24T09:07:59.531Z,34.43
2022-12-24T09:10:27.466Z,33.77
2022-12-24T09:12:54.998Z,32.70
2022-12-24T09:15:23.908Z,33.03
2022-12-24T09:17:51.544Z,33.20
2022-12-24T09:20:19.395Z,33.27
2022-12-24T09:22:47.054Z,33.97
2022-12-24T09:25:14.825Z,32.90
2022-12-24T09:27:42.526Z,33.10
2022-12-24T09:30:11.442Z,34.03
2022-12-24T09:32:40.654Z,34.10
2022-12-24T09:35:08.830Z,33.50
2022-12-24T09:37:36.914Z,34.60
2022-12-24T09:40:05.118Z,34.20
2022-12-24T09:42:44.519Z,36.43
2022-12-24T09:45:20.705Z,33.57
2022-12-24T09:47:53.851Z,35.70
2022-12-24T09:50:34.910Z,33.80
2022-12-24T09:53:06.184Z,35.53
2022-12-24T09:55:38.157Z,34.60
2022-12-24T09:58:11.651Z,34.37
2022-12-24T10:00:43.182Z,35.07
2022-12-24T10:03:17.464Z,33.07
2022-12-24T10:05:51.003Z,33.90
2022-12-24T10:08:28.336Z,33.77
2022-12-24T10:11:00.539Z,32.90
2022-12-24T10:13:41.496Z,34.47
2022-12-24T10:16:19.089Z,32.47
2022-12-24T10:18:57.003Z,35.17
2022-12-24T10:21:33.606Z,35.23
2022-12-24T10:24:07.997Z,32.97
2022-12-24T10:26:45.120Z,32.70
2022-12-24T10:29:19.054Z,32.93
2022-12-24T10:31:54.571Z,32.73
2022-12-24T10:34:25.650Z,32.00
2022-12-24T10:36:53.467Z,31.23
2022-12-24T10:39:24.200Z,32.30
2022-12-24T10:41:55.199Z,32.83
2022-12-24T10:44:26.016Z,31.93
2022-12-24T10:46:53.612Z,32.70
2022-12-24T10:49:29.267Z,33.60
2022-12-24T10:52:01.350Z,32.43
2022-12-24T10:54:34.345Z,33.10
2022-12-24T10:57:03.375Z,32.20
2022-12-24T10:59:33.285Z,31.10
2022-12-24T11:02:02.355Z,31.37
2022-12-24T11:04:33.401Z,30.90
2022-12-24T11:07:03.143Z,31.27
2022-12-24T11:09:33.328Z,31.20
2022-12-24T11:12:09.032Z,30.90
2022-12-24T11:14:39.765Z,31.17
2022-12-24T11:17:07.547Z,31.60
2022-12-24T11:19:40.078Z,30.80
2022-12-24T11:22:18.917Z,33.63
2022-12-24T11:24:50.305Z,34.30
2022-12-24T11:27:44.194Z,35.90
2022-12-24T11:30:20.440Z,31.50
2022-12-24T11:32:49.568Z,32.00
2022-12-24T11:35:21.644Z,31.00
2022-12-24T11:37:49.708Z,33.23
2022-12-24T11:40:22.565Z,31.57
2022-12-24T11:42:53.181Z,31.70
2022-12-24T11:45:25.864Z,32.93
2022-12-24T11:47:54.655Z,31.20
2022-12-24T11:50:27.222Z,30.80
2022-12-24T11:53:03.603Z,30.63
2022-12-24T11:55:41.070Z,31.43
2022-12-24T11:58:20.658Z,29.30
2022-12-24T12:00:51.344Z,31.20
2022-12-24T12:03:28.807Z,31.43
2022-12-24T12:06:01.581Z,30.90
2022-12-24T12:08:31.241Z,31.40
2022-12-24T12:11:00.029Z,30.43
2022-12-24T12:13:33.341Z,32.17
2022-12-24T12:16:17.641Z,30.40
2022-12-24T12:18:52.162Z,31.10
2022-12-24T12:21:25.782Z,31.83
2022-12-24T12:23:58.561Z,31.60
2022-12-24T12:26:28.765Z,28.87
2022-12-24T12:29:00.134Z,31.07
2022-12-24T12:31:34.368Z,29.33
2022-12-24T12:34:07.215Z,30.40
2022-12-24T12:36:43.357Z,31.13
2022-12-24T12:39:12.287Z,34.90
2022-12-24T12:41:51.682Z,31.00
2022-12-24T12:44:42.369Z,29.20
2022-12-24T12:47:32.348Z,30.10
2022-12-24T12:50:10.256Z,32.20
2022-12-24T12:52:55.168Z,31.20
2022-12-24T12:55:37.943Z,32.97
2022-12-24T12:58:11.328Z,35.90
2022-12-24T13:00:45.238Z,30.43
2022-12-24T13:03:41.616Z,30.50
2022-12-24T13:06:25.583Z,30.60
2022-12-24T13:09:13.643Z,32.90
2022-12-24T13:11:53.328Z,31.57
2022-12-24T13:14:41.519Z,31.63
2022-12-24T13:17:34.304Z,31.40
2022-12-24T13:20:25.626Z,30.80
2022-12-24T13:22:59.095Z,31.37
2022-12-24T13:25:38.510Z,30.10
2022-12-24T13:28:37.119Z,31.07
2022-12-24T13:31:29.921Z,30.50
2022-12-24T13:34:19.607Z,38.20
2022-12-24T13:37:20.874Z,34.80
2022-12-24T13:40:16.596Z,39.77
2022-12-24T13:42:53.061Z,42.73
2022-12-24T13:45:44.541Z,44.43
2022-12-24T13:48:26.851Z,37.50
2022-12-24T13:50:56.955Z,36.57
2022-12-24T13:53:29.809Z,35.10
2022-12-24T13:56:00.456Z,35.33
2022-12-24T13:58:29.664Z,33.93
2022-12-24T14:01:00.224Z,36.00
2022-12-24T14:03:33.495Z,36.67
2022-12-24T14:06:06.353Z,35.20
2022-12-24T14:08:39.829Z,35.90
2022-12-24T14:11:11.476Z,35.03
2022-12-24T14:14:12.690Z,34.23
2022-12-24T14:16:47.579Z,34.10
2022-12-24T14:19:17.916Z,35.23
2022-12-24T14:21:53.984Z,37.03
2022-12-24T14:24:26.269Z,34.87
2022-12-24T14:26:57.948Z,35.33
2022-12-24T14:29:31.074Z,38.03
2022-12-24T14:32:04.023Z,37.53
2022-12-24T14:34:31.924Z,36.97
2022-12-24T14:37:04.508Z,38.57
2022-12-24T14:39:35.116Z,39.40
2022-12-24T14:42:11.619Z,37.27
2022-12-24T14:44:47.260Z,36.57
2022-12-24T14:47:26.712Z,38.73
2022-12-24T14:50:05.875Z,35.87
2022-12-24T14:53:05.629Z,38.00
2022-12-24T14:55:31.287Z,38.83
2022-12-24T14:58:25.231Z,39.93
2022-12-24T15:00:57.213Z,41.50
2022-12-24T15:03:27.075Z,43.60
2022-12-24T15:05:57.595Z,42.50
2022-12-24T15:08:30.531Z,40.17
2022-12-24T15:11:02.645Z,41.10
2022-12-24T15:13:36.658Z,44.30
2022-12-24T15:16:09.034Z,43.63
2022-12-24T15:18:39.246Z,37.40
2022-12-24T15:21:15.555Z,40.33
2022-12-24T15:23:48.440Z,43.67
2022-12-24T15:26:21.930Z,40.70
2022-12-24T15:28:49.925Z,40.67
2022-12-24T15:31:21.171Z,38.60
2022-12-24T15:33:50.400Z,41.00
2022-12-24T15:36:25.038Z,41.20
2022-12-24T15:38:55.224Z,41.40
2022-12-24T15:41:25.115Z,41.33
2022-12-24T15:43:55.524Z,40.33
2022-12-24T15:46:27.238Z,41.67
2022-12-24T15:48:57.021Z,39.13
2022-12-24T15:51:27.493Z,39.50
2022-12-24T15:54:01.575Z,42.07
2022-12-24T15:56:33.204Z,43.40
2022-12-24T15:59:31.094Z,41.63
2022-12-24T16:02:27.332Z,38.73
2022-12-24T16:04:55.140Z,37.40
2022-12-24T16:07:47.122Z,41.90
2022-12-24T16:10:25.150Z,37.30
2022-12-24T16:12:53.131Z,39.33
2022-12-24T16:15:21.308Z,36.60
2022-12-24T16:17:52.983Z,39.80
2022-12-24T16:20:23.077Z,39.63
2022-12-24T16:22:51.480Z,36.83
2022-12-24T16:25:27.240Z,35.57
2022-12-24T16:27:59.806Z,36.27
2022-12-24T16:30:27.902Z,38.67
2022-12-24T16:32:56.956Z,37.90
2022-12-24T16:35:28.098Z,36.73
2022-12-24T16:37:56.160Z,39.43
2022-12-24T16:40:27.630Z,36.80
2022-12-24T16:43:14.556Z,36.80
2022-12-24T16:45:42.792Z,38.70
2022-12-24T16:48:20.592Z,36.17
2022-12-24T16:50:48.252Z,38.97
2022-12-24T16:53:17.804Z,40.10
2022-12-24T16:55:47.513Z,37.00
2022-12-24T16:58:17.191Z,37.10
2022-12-24T17:00:45.609Z,38.03
2022-12-24T17:03:15.120Z,36.63
2022-12-24T17:05:44.387Z,36.90
2022-12-24T17:08:13.161Z,37.90
2022-12-24T17:10:41.232Z,38.53
2022-12-24T17:13:08.839Z,38.23
2022-12-24T17:15:36.420Z,41.13
2022-12-24T17:18:04.234Z,38.10
2022-12-24T17:20:33.140Z,37.83
2022-12-24T17:23:01.490Z,38.40
2022-12-24T17:25:29.051Z,45.20
2022-12-24T17:27:56.590Z,39.23
2022-12-24T17:30:24.151Z,37.17
2022-12-24T17:32:52.079Z,38.97
2022-12-24T17:35:19.676Z,44.67
2022-12-24T17:37:48.603Z,37.50
2022-12-24T17:40:16.506Z,38.90
2022-12-24T17:42:44.105Z,43.20
2022-12-24T17:45:12.032Z,39.70
2022-12-24T17:47:39.600Z,41.40
2022-12-24T17:50:08.354Z,40.70
2022-12-24T17:52:35.928Z,42.17
2022-12-24T17:55:05.692Z,44.30
2022-12-24T17:57:33.291Z,43.27
2022-12-24T18:00:00.862Z,39.67
2022-12-24T18:02:28.666Z,43.73
2022-12-24T18:04:56.333Z,42.60
2022-12-24T18:07:23.932Z,43.30
2022-12-24T18:09:51.490Z,39.57
2022-12-24T18:12:20.472Z,41.27
2022-12-24T18:14:47.999Z,43.50
2022-12-24T18:17:15.571Z,45.07
2022-12-24T18:19:43.211Z,44.53
2022-12-24T18:22:10.796Z,45.37
2022-12-24T18:24:38.374Z,43.83
2022-12-24T18:27:05.982Z,43.77
2022-12-24T18:29:35.211Z,42.00
2022-12-24T18:32:02.769Z,43.97
2022-12-24T18:34:30.360Z,45.80
2022-12-24T18:36:58.245Z,46.70
2022-12-24T18:39:26.351Z,47.43
2022-12-24T18:41:53.889Z,45.33
2022-12-24T18:44:25.348Z,43.00
2022-12-24T18:46:54.790Z,43.27
2022-12-24T18:49:22.448Z,46.17
2022-12-24T18:51:50.027Z,43.83
2022-12-24T18:54:17.612Z,42.93
2022-12-24T18:56:45.181Z,43.17
2022-12-24T18:59:12.808Z,44.90
2022-12-24T19:01:40.582Z,43.23
2022-12-24T19:04:10.341Z,43.70
2022-12-24T19:06:38.200Z,43.10
2022-12-24T19:09:05.787Z,39.90
2022-12-24T19:11:34.895Z,40.50
2022-12-24T19:14:03.719Z,39.77
2022-12-24T19:16:34.000Z,42.57
2022-12-24T19:19:02.992Z,41.70
2022-12-24T19:21:32.075Z,39.73
2022-12-24T19:23:59.667Z,39.80
2022-12-24T19:26:27.848Z,41.43
2022-12-24T19:28:55.804Z,39.47
2022-12-24T19:31:25.656Z,39.50
2022-12-24T19:33:55.451Z,38.47
2022-12-24T19:36:25.303Z,38.47
2022-12-24T19:38:54.647Z,40.20
2022-12-24T19:41:24.569Z,37.07
2022-12-24T19:43:53.566Z,36.40
2022-12-24T19:46:23.136Z,35.37
2022-12-24T19:48:52.499Z,35.77
2022-12-24T19:51:20.967Z,34.50
2022-12-24T19:53:49.052Z,33.30
2022-12-24T19:56:19.512Z,32.40
2022-12-24T19:58:47.742Z,31.00
2022-12-24T20:01:17.853Z,31.43
2022-12-24T20:03:45.836Z,31.57
2022-12-24T20:06:14.400Z,29.40
2022-12-24T20:08:42.192Z,29.40
2022-12-24T20:11:13.875Z,31.97
2022-12-24T20:13:43.154Z,30.20
2022-12-24T20:16:14.361Z,31.20
2022-12-24T20:18:42.039Z,30.53
2022-12-24T20:21:12.583Z,32.50
2022-12-24T20:23:41.002Z,31.97
2022-12-24T20:26:11.675Z,31.50
2022-12-24T20:28:39.897Z,31.67
2022-12-24T20:31:16.578Z,33.13
2022-12-24T20:33:45.736Z,31.53
2022-12-24T20:36:15.831Z,31.43
2022-12-24T20:38:43.515Z,30.13
2022-12-24T20:41:12.239Z,33.87
2022-12-24T20:43:47.343Z,34.87
2022-12-24T20:46:18.870Z,31.17
2022-12-24T20:48:47.120Z,32.53
2022-12-24T20:51:23.406Z,33.67
2022-12-24T20:53:52.534Z,34.47
2022-12-24T20:56:20.363Z,33.33
2022-12-24T20:58:47.970Z,34.83
2022-12-24T21:01:19.945Z,33.17
2022-12-24T21:03:47.788Z,35.13
2022-12-24T21:06:17.620Z,32.87
2022-12-24T21:08:45.571Z,35.90
2022-12-24T21:11:27.193Z,35.93
2022-12-24T21:13:54.907Z,36.17
2022-12-24T21:16:23.840Z,36.80
2022-12-24T21:18:51.801Z,35.73
2022-12-24T21:21:19.469Z,34.03
2022-12-24T21:23:47.095Z,34.53
2022-12-24T21:26:14.722Z,35.13
2022-12-24T21:28:42.581Z,33.70
2022-12-24T21:31:11.152Z,34.03
2022-12-24T21:33:40.235Z,34.27
2022-12-24T21:36:08.479Z,35.60
2022-12-24T21:38:36.326Z,37.10
2022-12-24T21:41:06.218Z,34.93
2022-12-24T21:43:35.419Z,34.50
2022-12-24T21:46:07.512Z,35.27
2022-12-24T21:48:52.696Z,35.70
2022-12-24T21:51:21.738Z,34.30
2022-12-24T21:54:21.361Z,35.97
2022-12-24T21:57:06.214Z,34.80
2022-12-24T21:59:33.858Z,35.10
2022-12-24T22:02:01.940Z,38.93
2022-12-24T22:04:31.445Z,35.53
2022-12-24T22:07:17.929Z,38.17
2022-12-24T22:10:03.203Z,34.77
2022-12-24T22:12:32.689Z,34.13
2022-12-24T22:15:00.707Z,34.97
2022-12-24T22:17:28.582Z,33.03
2022-12-24T22:19:56.506Z,34.70
2022-12-24T22:22:25.469Z,33.90
2022-12-24T22:24:53.096Z,33.47
2022-12-24T22:27:20.735Z,34.50
2022-12-24T22:29:48.299Z,34.10
2022-12-24T22:32:16.226Z,35.00
2022-12-24T22:34:43.754Z,34.20
2022-12-24T22:37:11.398Z,36.13
2022-12-24T22:39:40.314Z,34.70
2022-12-24T22:42:07.918Z,34.80
2022-12-24T22:44:36.261Z,32.47
2022-12-24T22:47:03.832Z,33.90
2022-12-24T22:49:31.584Z,33.77
2022-12-24T22:51:59.227Z,33.60
2022-12-24T22:54:26.999Z,33.90
2022-12-24T22:56:55.944Z,33.13
2022-12-24T22:59:23.551Z,33.60
2022-12-24T23:01:52.522Z,33.10
2022-12-24T23:04:20.614Z,32.03
2022-12-24T23:06:48.559Z,31.63
2022-12-24T23:09:17.485Z,32.83
2022-12-24T23:11:45.905Z,33.20
2022-12-24T23:14:35.470Z,32.63
2022-12-24T23:17:03.140Z,32.40
2022-12-24T23:19:33.379Z,31.10
2022-12-24T23:22:01.691Z,34.37
2022-12-24T23:24:29.966Z,31.17
2022-12-24T23:26:58.441Z,33.23
2022-12-24T23:29:27.384Z,31.47
2022-12-24T23:31:55.094Z,32.67
2022-12-24T23:34:22.660Z,33.37
2022-12-24T23:36:50.198Z,33.90
2022-12-24T23:39:17.847Z,32.93
2022-12-24T23:41:45.778Z,32.30
2022-12-24T23:44:13.358Z,34.77
2022-12-24T23:46:42.399Z,33.10
2022-12-24T23:49:13.787Z,32.27
2022-12-24T23:51:41.386Z,33.93
2022-12-24T23:54:09.094Z,34.37
2022-12-24T23:56:36.837Z,33.47
2022-12-24T23:59:04.842Z,33.13
